Time;durP1;ratioP1;P1;durP2;ratioP2;P2;SDS_P1;SDS_P2;PMS_P1;PMS_P2;Temp;Humidity;BMP_temperature;BMP_pressure;BME280_temperature;BME280_humidity;BME280_pressure;Samples;Min_cycle;Max_cycle;Signal;HPM_P1;HPM_P2
2024/01/12 00:00:30;;;;;;;;;109.00;80.67;;;;;-1.05;100.00;100046.63;6308836;20;3676314;-45
2024/01/12 00:03:02;;;;;;;;;140.00;114.00;;;;;-1.76;100.00;100055.06;6277773;20;4483563;-43
2024/01/12 00:05:33;;;;;;;;;153.50;112.00;;;;;-1.04;100.00;100058.94;6276801;20;3722288;-44
2024/01/12 00:08:02;;;;;;;;;981.80;609.00;;;;;-1.49;100.00;100071.56;6233214;20;4528359;-45
2024/01/12 00:10:33;;;;;;;;;112.25;70.00;;;;;-1.49;100.00;100063.66;6309454;20;3689842;-44
2024/01/12 00:13:03;;;;;;;;;109.67;80.00;;;;;-1.20;100.00;100066.97;6275444;20;3683582;-43
2024/01/12 00:15:32;;;;;;;;;104.67;78.33;;;;;-1.12;100.00;100072.16;6276475;20;3665877;-43
2024/01/12 00:18:02;;;;;;;;;106.33;80.67;;;;;-1.03;100.00;100071.22;6311187;20;3676304;-45
2024/01/12 00:20:33;;;;;;;;;110.00;76.00;;;;;-1.21;100.00;100061.69;6274259;20;3679403;-45
2024/01/12 00:23:03;;;;;;;;;109.00;77.67;;;;;-1.05;100.00;100057.16;6277932;20;3675332;-43
2024/01/12 00:25:32;;;;;;;;;106.33;79.00;;;;;-1.02;100.00;100067.72;6310688;20;3679429;-44
2024/01/12 00:28:02;;;;;;;;;105.00;78.00;;;;;-0.87;100.00;100067.53;6277119;20;3678469;-45
2024/01/12 00:30:32;;;;;;;;;109.00;81.67;;;;;-1.14;100.00;100069.53;6309384;20;3674294;-44
2024/01/12 00:33:02;;;;;;;;;105.33;78.00;;;;;-1.22;100.00;100066.09;6275026;20;3674252;-43
2024/01/12 00:35:32;;;;;;;;;103.67;73.00;;;;;-1.02;100.00;100067.72;6274713;20;3677367;-43
2024/01/12 00:38:02;;;;;;;;;95.00;69.33;;;;;-1.19;100.00;100060.78;6309114;20;3674169;-44
2024/01/12 00:40:32;;;;;;;;;107.67;77.33;;;;;-1.23;100.00;100067.00;6309210;20;3670201;-44
2024/01/12 00:43:01;;;;;;;;;107.33;70.00;;;;;-1.00;100.00;100072.09;6277740;20;3673183;-45
2024/01/12 00:45:31;;;;;;;;;107.00;76.67;;;;;-1.94;100.00;100074.44;6309675;20;3682647;-44
2024/01/12 00:48:01;;;;;;;;;108.00;78.00;;;;;-2.34;100.00;100071.97;6274825;20;3685826;-43
2024/01/12 00:50:31;;;;;;;;;114.00;85.00;;;;;-2.44;100.00;100088.66;6277130;20;3685693;-43
2024/01/12 00:53:00;;;;;;;;;95.00;76.00;;;;;-2.35;100.00;100090.38;6274836;20;2879459;-44
2024/01/12 00:55:29;;;;;;;;;106.00;76.33;;;;;-2.54;100.00;100093.03;6276896;20;3674239;-43
2024/01/12 00:57:59;;;;;;;;;93.00;66.67;;;;;-2.62;100.00;100101.81;6309136;20;3657572;-43
2024/01/12 01:00:30;;;;;;;;;109.67;77.33;;;;;-2.49;100.00;100096.53;6308747;20;3670084;-43
2024/01/12 01:03:06;;;;;;;;;91.33;67.00;;;;;-1.79;100.00;100102.41;6304437;20;3660690;-43
2024/01/12 01:05:35;;;;;;;;;102.33;76.33;;;;;-1.63;100.00;100088.31;6307536;20;3660748;-43
2024/01/12 01:08:05;;;;;;;;;110.00;77.67;;;;;-1.63;100.00;100090.09;6305215;20;3675271;-43
2024/01/12 01:10:35;;;;;;;;;108.67;78.00;;;;;-1.93;100.00;100088.47;6272586;20;3658733;-42
2024/01/12 01:13:04;;;;;;;;;98.00;70.00;;;;;-1.68;100.00;100098.00;6305694;20;3675435;-43
2024/01/12 01:15:34;;;;;;;;;108.33;79.00;;;;;-2.24;100.00;100100.00;6308271;20;3668076;-43
2024/01/12 01:18:04;;;;;;;;;106.00;77.33;;;;;-2.58;100.00;100095.66;6306768;20;3676300;-43
2024/01/12 01:20:35;;;;;;;;;111.33;82.00;;;;;-2.64;100.00;100096.56;6275163;20;3666929;-42
2024/01/12 01:23:05;;;;;;;;;116.00;84.00;;;;;-2.75;100.00;100093.06;6308216;20;3683637;-42
2024/01/12 01:25:37;;;;;;;;;90.00;63.00;;;;;-2.87;100.00;100099.19;6274227;20;3677335;-42
2024/01/12 01:28:07;;;;;;;;;104.00;71.00;;;;;-2.72;100.00;100096.56;6271813;20;3688776;-43
2024/01/12 01:30:36;;;;;;;;;105.00;78.00;;;;;-2.75;100.00;100098.31;6304854;20;3677328;-43
2024/01/12 01:33:06;;;;;;;;;105.33;71.67;;;;;-2.94;100.00;100103.59;6307329;20;3679445;-43
2024/01/12 01:35:36;;;;;;;;;102.67;71.33;;;;;-2.94;100.00;100103.59;6273963;20;3676285;-43
2024/01/12 01:38:05;;;;;;;;;111.00;79.00;;;;;-2.78;100.00;100103.59;6305130;20;3676292;-42
2024/01/12 01:40:35;;;;;;;;;103.33;75.67;;;;;-2.29;100.00;100111.38;6308466;20;3662750;-43
2024/01/12 01:43:09;;;;;;;;;110.67;79.00;;;;;-2.28;100.00;100100.00;6306122;20;3690903;-43
2024/01/12 01:45:39;;;;;;;;;110.33;75.00;;;;;-1.78;100.00;100109.44;6277359;20;3688848;-43
2024/01/12 01:48:09;;;;;;;;;99.00;69.67;;;;;-1.78;100.00;100105.06;6275920;20;3669093;-43
2024/01/12 01:50:39;;;;;;;;;110.50;78.50;;;;;-1.87;100.00;100101.59;6305237;20;3636759;-43
2024/01/12 01:53:09;;;;;;;;;95.33;66.00;;;;;-2.90;100.00;100102.72;6307842;20;3663879;-44
2024/01/12 01:55:39;;;;;;;;;101.33;74.67;;;;;-2.12;100.00;100091.16;6307963;20;3656531;-42
2024/01/12 01:58:09;;;;;;;;;96.00;65.00;;;;;-2.09;100.00;100085.88;6305179;20;3674272;-42
2024/01/12 02:00:39;;;;;;;;;111.67;77.33;;;;;-2.18;100.00;100095.59;6304437;20;3673778;-43
2024/01/12 02:03:09;;;;;;;;;105.67;75.33;;;;;-2.39;100.00;100100.03;6271731;20;3680609;-43
2024/01/12 02:05:41;;;;;;;;;95.00;64.00;;;;;-3.26;100.00;100095.72;6306455;20;3666953;-42
2024/01/12 02:08:12;;;;;;;;;106.00;74.33;;;;;-2.86;100.00;100090.47;6305363;20;3673339;-42
2024/01/12 02:10:42;;;;;;;;;111.00;78.00;;;;;-2.69;100.00;100093.91;6307641;20;3687256;-42
2024/01/12 02:13:12;;;;;;;;;105.67;75.33;;;;;-3.12;100.00;100093.09;6304563;20;3671204;-43
2024/01/12 02:15:42;;;;;;;;;93.33;66.33;;;;;-3.32;100.00;100091.34;6273944;20;3658656;-42
2024/01/12 02:18:11;;;;;;;;;106.00;74.33;;;;;-2.82;100.00;100107.09;6306465;20;3682557;-42
2024/01/12 02:20:42;;;;;;;;;116.33;78.33;;;;;-3.39;100.00;100104.44;6270953;20;3686858;-43
2024/01/12 02:23:11;;;;;;;;;102.33;76.00;;;;;-2.98;100.00;100100.97;6307887;20;3678545;-43
2024/01/12 02:25:44;;;;;;;;;103.00;73.00;;;;;-2.38;100.00;100114.91;6303804;20;2789908;-42
2024/01/12 02:28:14;;;;;;;;;104.67;74.00;;;;;-2.25;100.00;100105.25;6269864;20;3690890;-42
2024/01/12 02:30:45;;;;;;;;;96.00;71.33;;;;;-2.25;100.00;100115.75;6272804;20;3661733;-43
2024/01/12 02:33:15;;;;;;;;;108.33;79.00;;;;;-2.98;100.00;100117.59;6301847;20;3677327;-44
2024/01/12 02:35:45;;;;;;;;;102.00;72.00;;;;;-2.99;100.00;100115.84;6268548;20;3682552;-44
2024/01/12 02:38:14;;;;;;;;;108.33;78.33;;;;;-2.49;100.00;100116.69;6307022;20;3683001;-42
2024/01/12 02:40:44;;;;;;;;;114.67;84.00;;;;;-2.12;100.00;100119.22;6306465;20;3696073;-42
2024/01/12 02:43:14;;;;;;;;;108.67;77.67;;;;;-2.63;100.00;100113.19;6275062;20;3681565;-42
2024/01/12 02:45:44;;;;;;;;;113.33;83.33;;;;;-2.27;100.00;100115.75;6273081;20;3676325;-43
2024/01/12 02:48:13;;;;;;;;;108.33;76.00;;;;;-2.02;100.00;100116.56;6273491;20;3678794;-42
2024/01/12 02:50:43;;;;;;;;;98.33;68.33;;;;;-2.00;100.00;100117.44;6304877;20;3658618;-42
2024/01/12 02:53:13;;;;;;;;;118.00;82.67;;;;;-2.17;100.00;100119.25;6306242;20;3696187;-43
2024/01/12 02:55:43;;;;;;;;;114.00;76.67;;;;;-3.07;100.00;100120.22;6270206;20;3685833;-42
2024/01/12 02:58:13;;;;;;;;;117.00;81.33;;;;;-2.26;100.00;100119.28;6270961;20;3697135;-43
2024/01/12 03:00:43;;;;;;;;;114.00;83.67;;;;;-2.36;100.00;100114.91;6271024;20;3688290;-44
2024/01/12 03:03:13;;;;;;;;;94.67;69.33;;;;;-2.04;100.00;100115.69;6267494;20;3670045;-42
2024/01/12 03:05:43;;;;;;;;;110.67;78.67;;;;;-2.09;100.00;100124.47;6301779;20;3681500;-43
2024/01/12 03:08:14;;;;;;;;;104.00;73.67;;;;;-2.01;100.00;100123.56;6271828;20;3675388;-42
2024/01/12 03:10:44;;;;;;;;;109.00;78.50;;;;;-2.30;100.00;100117.53;6299318;20;3567009;-42
2024/01/12 03:13:13;;;;;;;;;96.33;69.00;;;;;-2.33;100.00;100125.44;6301195;20;3667956;-42
2024/01/12 03:15:43;;;;;;;;;114.67;79.67;;;;;-2.46;100.00;100119.31;6304364;20;3699219;-42
2024/01/12 03:18:14;;;;;;;;;111.67;75.00;;;;;-2.40;100.00;100126.31;6275955;20;3676297;-42
2024/01/12 03:20:44;;;;;;;;;107.00;73.00;;;;;-2.57;100.00;100119.34;6273008;20;3676327;-42
2024/01/12 03:23:14;;;;;;;;;112.67;78.67;;;;;-2.74;100.00;100116.75;6273437;20;3694012;-43
2024/01/12 03:25:43;;;;;;;;;109.67;78.33;;;;;-2.52;100.00;100122.84;6271814;20;3683998;-42
2024/01/12 03:28:13;;;;;;;;;109.67;78.00;;;;;-2.03;100.00;100112.19;6273273;20;3681645;-41
2024/01/12 03:30:43;;;;;;;;;112.00;80.33;;;;;-2.27;100.00;100123.63;6271056;20;3690885;-42
2024/01/12 03:33:12;;;;;;;;;109.00;80.33;;;;;-2.39;100.00;100123.69;6277709;20;3680463;-42
2024/01/12 03:35:42;;;;;;;;;105.00;75.33;;;;;-2.26;100.00;100122.78;6273141;20;3683606;-42
2024/01/12 03:38:13;;;;;;;;;107.67;71.00;;;;;-2.02;100.00;100128.84;6310286;20;3700385;-42
2024/01/12 03:40:42;;;;;;;;;117.00;84.00;;;;;-2.27;100.00;100122.78;6279347;20;3692946;-44
2024/01/12 03:43:12;;;;;;;;;115.00;79.67;;;;;-2.79;100.00;100130.72;6279491;20;3695070;-42
2024/01/12 03:45:42;;;;;;;;;108.00;81.33;;;;;-2.86;100.00;100124.59;6277287;20;3680573;-43
2024/01/12 03:48:12;;;;;;;;;117.33;86.67;;;;;-2.37;100.00;100123.66;6275688;20;3694005;-42
2024/01/12 03:50:42;;;;;;;;;106.00;78.33;;;;;-1.95;100.00;100129.69;6277625;20;3671109;-42
2024/01/12 03:53:12;;;;;;;;;96.33;66.33;;;;;-2.05;100.00;100135.00;6276725;20;3658616;-42
2024/01/12 03:55:41;;;;;;;;;89.00;68.33;;;;;-2.08;100.00;100134.09;6309129;20;2894067;-42
2024/01/12 03:58:11;;;;;;;;;110.33;77.00;;;;;-1.93;100.00;100133.19;6309379;20;3674229;-41
2024/01/12 04:00:41;;;;;;;;;110.00;80.00;;;;;-2.04;100.00;100131.47;6275203;20;3700307;-45
2024/01/12 04:03:11;;;;;;;;;107.67;78.00;;;;;-1.93;100.00;100134.06;6279939;20;3680640;-42
2024/01/12 04:05:41;;;;;;;;;93.33;68.33;;;;;-1.98;100.00;100130.56;6277434;20;3679861;-43
2024/01/12 04:08:10;;;;;;;;;109.67;78.00;;;;;-2.28;100.00;100127.16;6308837;20;3679456;-44
2024/01/12 04:10:40;;;;;;;;;112.33;79.00;;;;;-2.35;100.00;100124.53;6276924;20;3682612;-43
2024/01/12 04:13:09;;;;;;;;;104.00;69.33;;;;;-2.05;100.00;100124.47;6308166;20;3679445;-42
2024/01/12 04:15:39;;;;;;;;;94.33;64.00;;;;;-2.19;100.00;100125.38;6275067;20;3662815;-42
2024/01/12 04:18:09;;;;;;;;;109.00;79.67;;;;;-2.62;100.00;100121.09;6307047;20;3679488;-43
2024/01/12 04:20:39;;;;;;;;;110.67;79.00;;;;;-2.53;100.00;100126.31;6277196;20;3687783;-42
2024/01/12 04:23:09;;;;;;;;;109.00;76.33;;;;;-2.33;100.00;100126.28;6278572;20;3698297;-42
2024/01/12 04:25:39;;;;;;;;;117.33;82.67;;;;;-2.35;100.00;100129.81;6275165;20;3699730;-42
2024/01/12 04:28:08;;;;;;;;;117.33;80.67;;;;;-2.09;100.00;100135.00;6277667;20;3691979;-42
2024/01/12 04:30:38;;;;;;;;;109.67;80.33;;;;;-1.77;100.00;100140.13;6279167;20;3684624;-42
2024/01/12 04:33:08;;;;;;;;;117.33;88.00;;;;;-1.90;100.00;100130.53;6273129;20;3701354;-44
2024/01/12 04:35:38;;;;;;;;;116.33;81.67;;;;;-1.38;100.00;100127.66;6271301;20;3696085;-44
2024/01/12 04:38:11;;;;;;;;;101.67;69.00;;;;;-1.99;100.00;100127.06;6278577;20;3680457;-44
2024/01/12 04:40:40;;;;;;;;;118.33;91.00;;;;;-1.81;100.00;100134.03;6275943;20;3701318;-43
2024/01/12 04:43:10;;;;;;;;;113.67;91.00;;;;;-2.07;100.00;100131.50;6273802;20;3680488;-42
2024/01/12 04:45:40;;;;;;;;;115.00;88.00;;;;;-1.86;100.00;100127.03;6275143;20;3682720;-42
2024/01/12 04:48:11;;;;;;;;;106.67;70.00;;;;;-2.14;100.00;100140.28;6274413;20;3670057;-41
2024/01/12 04:50:41;;;;;;;;;109.67;79.67;;;;;-2.33;100.00;100138.56;6274808;20;2921309;-43
2024/01/12 04:53:11;;;;;;;;;113.33;79.00;;;;;-1.86;100.00;100145.47;6308876;20;3682654;-42
2024/01/12 04:55:41;;;;;;;;;107.00;77.00;;;;;-1.67;100.00;100151.50;6276529;20;3631542;-42
2024/01/12 04:58:11;;;;;;;;;111.33;79.67;;;;;-1.72;100.00;100148.91;6309186;20;3680522;-42
2024/01/12 05:00:40;;;;;;;;;113.33;84.67;;;;;-1.67;100.00;100159.41;6272632;20;3684763;-42
2024/01/12 05:03:10;;;;;;;;;108.33;76.67;;;;;-1.87;100.00;100164.75;6271585;20;3683656;-43
2024/01/12 05:05:43;;;;;;;;;108.33;76.00;;;;;-1.73;100.00;100173.47;6305742;20;3677394;-42
2024/01/12 05:08:13;;;;;;;;;112.33;81.00;;;;;-1.76;100.00;100173.50;6275374;20;3684646;-42
2024/01/12 05:10:43;;;;;;;;;101.33;76.33;;;;;-1.67;100.00;100180.47;6274112;20;3650279;-43
2024/01/12 05:13:12;;;;;;;;;108.00;84.67;;;;;-1.73;100.00;100186.63;6304121;20;3673228;-43
2024/01/12 05:15:42;;;;;;;;;93.33;70.33;;;;;-1.74;100.00;100192.75;6274225;20;2889054;-43
2024/01/12 05:18:12;;;;;;;;;104.00;74.33;;;;;-1.98;100.00;100193.72;6306995;20;3677362;-42
2024/01/12 05:20:42;;;;;;;;;110.67;78.67;;;;;-2.00;100.00;100195.50;6308624;20;3687794;-43
2024/01/12 05:23:12;;;;;;;;;108.67;76.00;;;;;-1.81;100.00;100204.22;6275698;20;3673381;-43
2024/01/12 05:25:41;;;;;;;;;111.00;86.00;;;;;-1.84;100.00;100206.88;6308110;20;3665906;-43
2024/01/12 05:28:11;;;;;;;;;100.00;69.33;;;;;-1.75;100.00;100206.81;6308583;20;3681617;-42
2024/01/12 05:30:42;;;;;;;;;108.67;76.33;;;;;-1.22;100.00;100197.81;6274261;20;3684674;-42
2024/01/12 05:33:10;;;;;;;;;91.50;72.50;;;;;-1.38;100.00;100201.41;6273187;20;2894076;-43
2024/01/12 05:35:41;;;;;;;;;112.33;84.33;;;;;-1.09;100.00;100197.75;6275449;20;3689587;-42
2024/01/12 05:38:10;;;;;;;;;108.00;78.00;;;;;-1.41;100.00;100202.28;6275881;20;3666988;-42
2024/01/12 05:40:40;;;;;;;;;105.33;71.33;;;;;-1.60;100.00;100195.38;6307239;20;3681529;-43
2024/01/12 05:43:10;;;;;;;;;108.33;78.33;;;;;-1.82;100.00;100205.97;6307896;20;3681518;-43
2024/01/12 05:45:40;;;;;;;;;105.33;78.00;;;;;-1.73;100.00;100210.31;6273620;20;3675283;-42
2024/01/12 05:48:10;;;;;;;;;119.67;93.67;;;;;-1.23;100.00;100208.38;6305486;20;3698162;-43
2024/01/12 05:50:40;;;;;;;;;123.67;89.67;;;;;-1.12;100.00;100215.31;6276905;20;3705510;-42
2024/01/12 05:53:09;;;;;;;;;114.67;87.67;;;;;-1.27;100.00;100218.03;6276123;20;3694066;-42
2024/01/12 05:55:39;;;;;;;;;134.67;101.33;;;;;-1.37;100.00;100221.59;6273748;20;3708633;-45
2024/01/12 05:58:09;;;;;;;;;114.00;93.67;;;;;-1.23;100.00;100221.53;6275312;20;3690997;-42
2024/01/12 06:00:39;;;;;;;;;117.33;91.67;;;;;-1.25;100.00;100232.06;6276066;20;3706505;-42
2024/01/12 06:03:08;;;;;;;;;100.33;72.00;;;;;-1.19;100.00;100228.53;6276188;20;3666298;-44
2024/01/12 06:05:40;;;;;;;;;100.67;71.00;;;;;-1.37;100.00;100232.13;6308391;20;3672106;-44
2024/01/12 06:08:10;;;;;;;;;93.33;69.67;;;;;-1.15;100.00;100230.28;6308309;20;3641921;-42
2024/01/12 06:10:43;;;;;;;;;95.00;67.67;;;;;-0.98;100.00;100228.41;6307253;20;3650334;-43
2024/01/12 06:13:13;;;;;;;;;91.00;67.00;;;;;-0.91;100.00;100224.84;6306958;20;3654513;-44
2024/01/12 06:15:43;;;;;;;;;97.67;70.00;;;;;-0.96;100.00;100224.00;6305865;20;3659644;-43
2024/01/12 06:18:13;;;;;;;;;97.33;69.33;;;;;-0.92;100.00;100227.53;6308145;20;3662894;-42
2024/01/12 06:20:43;;;;;;;;;93.67;66.67;;;;;-0.76;100.00;100226.53;6305904;20;3655494;-44
2024/01/12 06:23:13;;;;;;;;;97.33;70.33;;;;;-0.86;100.00;100222.19;6308201;20;3644099;-42
2024/01/12 06:25:43;;;;;;;;;102.33;74.67;;;;;-1.03;100.00;100231.94;6304764;20;3676291;-42
2024/01/12 06:28:13;;;;;;;;;111.33;85.00;;;;;-0.97;100.00;100230.16;6271806;20;3685705;-43
2024/01/12 06:30:43;;;;;;;;;142.00;117.33;;;;;-0.73;100.00;100234.41;6270122;20;3758691;-43
2024/01/12 06:33:14;;;;;;;;;155.00;118.33;;;;;-0.85;100.00;100228.34;6275719;20;3726321;-44
2024/01/12 06:35:44;;;;;;;;;146.33;102.33;;;;;-0.87;100.00;100236.25;6273653;20;3713790;-43
2024/01/12 06:38:14;;;;;;;;;118.00;93.00;;;;;-0.79;100.00;100239.72;6271689;20;3707616;-43
2024/01/12 06:40:44;;;;;;;;;112.33;81.67;;;;;-0.92;100.00;100241.56;6273985;20;3679432;-42
2024/01/12 06:43:13;;;;;;;;;101.50;74.00;;;;;-1.00;100.00;100245.09;6304805;20;3559629;-42
2024/01/12 06:45:43;;;;;;;;;106.67;76.33;;;;;-0.97;100.00;100245.13;6305246;20;3678806;-43
2024/01/12 06:48:13;;;;;;;;;101.67;73.67;;;;;-0.89;100.00;100248.59;6272862;20;3675339;-45
2024/01/12 06:50:43;;;;;;;;;104.33;80.00;;;;;-0.68;100.00;100253.72;6306472;20;3672173;-43
2024/01/12 06:53:14;;;;;;;;;103.00;76.33;;;;;-0.98;100.00;100259.16;6305721;20;3657588;-42
2024/01/12 06:55:44;;;;;;;;;106.33;78.67;;;;;-0.71;100.00;100266.91;6306048;20;3663796;-42
2024/01/12 06:58:13;;;;;;;;;97.00;71.67;;;;;-0.78;100.00;100273.09;6305105;20;3665654;-42
2024/01/12 07:00:43;;;;;;;;;107.33;76.00;;;;;-0.67;100.00;100273.03;6303301;20;3671123;-44
2024/01/12 07:03:13;;;;;;;;;102.00;77.00;;;;;-0.68;100.00;100282.72;6272480;20;3644066;-43
2024/01/12 07:05:43;;;;;;;;;109.00;80.00;;;;;-0.67;100.00;100276.53;6305637;20;3677395;-43
2024/01/12 07:08:16;;;;;;;;;107.00;79.67;;;;;-0.57;100.00;100271.22;6274657;20;3682572;-44
2024/01/12 07:10:46;;;;;;;;;99.00;75.00;;;;;-0.67;100.00;100273.91;6273289;20;3656624;-47
2024/01/12 07:13:16;;;;;;;;;103.33;76.33;;;;;-0.70;100.00;100276.56;6304005;20;3672219;-42
2024/01/12 07:15:45;;;;;;;;;98.33;70.67;;;;;-0.69;100.00;100278.31;6273389;20;3663790;-43
2024/01/12 07:18:15;;;;;;;;;88.33;66.00;;;;;-0.89;100.00;100280.22;6304383;20;3663790;-43
2024/01/12 07:20:43;;;;;;;;;73.50;58.00;;;;;-1.03;100.00;100297.84;6304572;20;2500301;-43
2024/01/12 07:23:13;;;;;;;;;97.67;73.00;;;;;-0.78;100.00;100301.25;6275114;20;2898319;-43
2024/01/12 07:25:43;;;;;;;;;105.00;73.33;;;;;-0.52;100.00;100306.34;6306086;20;3689242;-43
2024/01/12 07:28:12;;;;;;;;;99.33;71.33;;;;;-0.24;100.00;100307.91;6260352;20;3666966;-45
2024/01/12 07:30:42;;;;;;;;;93.00;71.67;;;;;0.05;100.00;100319.09;6302559;20;3645200;-42
2024/01/12 07:33:12;;;;;;;;;90.33;67.33;;;;;-0.14;100.00;100315.75;6304746;20;3653429;-43
2024/01/12 07:35:42;;;;;;;;;105.00;74.50;;;;;-0.32;100.00;100317.63;6305377;20;3630483;-43
2024/01/12 07:38:11;;;;;;;;;94.00;68.67;;;;;-0.18;100.00;100316.69;6302243;20;2905542;-45
2024/01/12 07:40:41;;;;;;;;;89.33;67.33;;;;;-0.05;100.00;100308.66;6301798;20;2895254;-42
2024/01/12 07:43:11;;;;;;;;;105.67;79.33;;;;;-0.38;100.00;100309.75;6301101;20;3673233;-44
2024/01/12 07:45:40;;;;;;;;;102.67;74.33;;;;;-0.10;100.00;100317.50;6305570;20;3662806;-42
2024/01/12 07:48:10;;;;;;;;;94.67;71.67;;;;;-0.17;100.00;100313.13;6271085;20;2903519;-42
2024/01/12 07:50:40;;;;;;;;;108.00;78.67;;;;;-0.94;100.00;100321.53;6304595;20;3680890;-43
2024/01/12 07:53:10;;;;;;;;;100.67;71.33;;;;;-0.99;100.00;100325.94;6265847;20;3664833;-43
2024/01/12 07:55:39;;;;;;;;;101.00;73.00;;;;;-1.13;100.00;100328.63;6300361;20;3666926;-43
2024/01/12 07:58:09;;;;;;;;;103.67;78.67;;;;;-0.91;100.00;100329.41;6301881;20;3677469;-42
2024/01/12 08:00:39;;;;;;;;;108.00;82.67;;;;;-0.89;100.00;100343.47;6270489;20;3656997;-42
2024/01/12 08:03:09;;;;;;;;;114.00;89.00;;;;;-0.70;100.00;100339.84;6302381;20;3698213;-42
2024/01/12 08:05:38;;;;;;;;;106.67;77.33;;;;;-0.35;100.00;100335.25;6271828;20;3676319;-42
2024/01/12 08:08:08;;;;;;;;;84.67;65.00;;;;;-0.86;100.00;100343.44;6269657;20;3630461;-43
2024/01/12 08:10:38;;;;;;;;;101.67;75.33;;;;;-0.53;100.00;100341.50;6300003;20;3665955;-43
2024/01/12 08:13:08;;;;;;;;;101.00;78.33;;;;;-0.35;100.00;100330.84;6301969;20;3668143;-43
2024/01/12 08:15:37;;;;;;;;;109.00;76.33;;;;;-0.26;100.00;100341.34;6303311;20;3682540;-43
2024/01/12 08:18:07;;;;;;;;;107.33;76.00;;;;;-0.25;100.00;100344.84;6270361;20;3683578;-43
2024/01/12 08:20:37;;;;;;;;;102.00;74.00;;;;;0.02;100.00;100343.75;6274928;20;3676306;-43
2024/01/12 08:23:07;;;;;;;;;97.00;74.00;;;;;0.18;100.00;100349.78;6276463;20;2895127;-42
2024/01/12 08:25:37;;;;;;;;;93.67;71.67;;;;;0.62;100.00;100346.72;6308779;20;3641925;-43
2024/01/12 08:28:07;;;;;;;;;94.00;72.00;;;;;0.34;100.00;100351.44;6307447;20;3658595;-41
2024/01/12 08:30:37;;;;;;;;;103.33;73.33;;;;;0.41;100.00;100354.88;6309996;20;3680462;-42
2024/01/12 08:33:07;;;;;;;;;101.33;75.67;;;;;0.24;100.00;100357.69;6277218;20;3677344;-42
2024/01/12 08:35:37;;;;;;;;;98.33;74.00;;;;;0.26;100.00;100361.16;6276920;20;3662760;-42
2024/01/12 08:38:06;;;;;;;;;100.33;72.33;;;;;0.11;100.00;100356.91;6305579;20;3661793;-42
2024/01/12 08:40:38;;;;;;;;;103.67;79.33;;;;;0.35;100.00;100360.22;6275178;20;3676392;-42
2024/01/12 08:43:09;;;;;;;;;98.33;69.00;;;;;0.40;100.00;100361.94;6308319;20;3659642;-44
2024/01/12 08:45:38;;;;;;;;;98.00;70.50;;;;;0.29;100.00;100365.53;6308636;20;3528492;-42
2024/01/12 08:48:08;;;;;;;;;90.00;69.33;;;;;0.55;100.00;100362.66;6309882;20;3643031;-43
2024/01/12 08:50:38;;;;;;;;;88.00;67.67;;;;;0.46;99.07;100379.47;6306617;20;3648165;-43
2024/01/12 08:53:09;;;;;;;;;89.00;64.67;;;;;0.28;99.16;100377.00;6305792;20;3669037;-43
2024/01/12 08:55:38;;;;;;;;;87.00;63.00;;;;;0.25;100.00;100387.59;6308092;20;3647123;-43
2024/01/12 08:58:10;;;;;;;;;90.67;65.00;;;;;0.79;98.82;100393.25;6309017;20;3653384;-43
2024/01/12 09:00:39;;;;;;;;;87.00;65.00;;;;;0.61;99.67;100395.19;6309896;20;2901409;-43
2024/01/12 09:03:09;;;;;;;;;105.67;87.00;;;;;0.77;97.83;100389.75;6309810;20;3670039;-45
2024/01/12 09:05:39;;;;;;;;;100.00;77.00;;;;;0.78;97.75;100388.88;6277494;20;3676420;-43
2024/01/12 09:08:09;;;;;;;;;81.67;62.67;;;;;0.29;98.60;100387.56;6310922;20;3629440;-44
2024/01/12 09:10:38;;;;;;;;;80.67;58.00;;;;;0.67;96.47;100383.69;6308942;20;2889910;-43
2024/01/12 09:13:07;;;;;;;;;78.50;59.50;;;;;0.70;97.33;100391.56;6307173;20;2886797;-42
2024/01/12 09:15:37;;;;;;;;;80.00;59.33;;;;;0.79;96.26;100382.66;6277601;20;3645050;-43
2024/01/12 09:18:08;;;;;;;;;76.33;56.00;;;;;0.71;95.62;100395.09;6310962;20;3634622;-43
2024/01/12 09:20:37;;;;;;;;;74.50;58.00;;;;;0.60;95.10;100393.44;6308987;20;2865905;-43
2024/01/12 09:23:06;;;;;;;;;70.50;53.50;;;;;0.81;95.32;100388.81;6278762;20;2880908;-43
2024/01/12 09:25:35;;;;;;;;;72.00;55.00;;;;;0.83;95.04;100394.97;6278519;20;2883598;-43
2024/01/12 09:28:04;;;;;;;;;79.33;57.00;;;;;0.63;94.05;100388.13;6280286;20;3651409;-43
2024/01/12 09:30:34;;;;;;;;;77.00;60.00;;;;;0.74;93.57;100389.78;6310136;20;2872225;-43
2024/01/12 09:33:04;;;;;;;;;89.67;66.33;;;;;1.10;92.96;100399.94;6273579;20;3653453;-43
2024/01/12 09:35:34;;;;;;;;;75.00;56.67;;;;;1.17;91.56;100394.59;6309351;20;2884773;-43
2024/01/12 09:38:02;;;;;;;;;66.00;50.00;;;;;1.29;91.13;100397.97;6301175;20;2496608;-43
2024/01/12 09:40:33;;;;;;;;;77.67;54.00;;;;;1.18;90.97;100397.22;6273111;20;2881575;-44
2024/01/12 09:43:13;;;;;;;;;72.33;59.67;;;;;1.34;90.09;100395.25;6303213;20;2870185;-42
2024/01/12 09:45:45;;;;;;;;;72.00;57.50;;;;;1.07;89.60;100393.81;6304536;20;2856572;-43
2024/01/12 09:48:14;;;;;;;;;71.00;53.50;;;;;1.12;90.05;100396.44;6277793;20;2874303;-42
2024/01/12 09:50:44;;;;;;;;;70.00;52.00;;;;;1.28;90.30;100390.06;6275704;20;2888010;-42
2024/01/12 09:53:13;;;;;;;;;66.00;51.00;;;;;1.33;89.56;100390.88;6305058;20;2857606;-43
2024/01/12 09:55:41;;;;;;;;;69.50;57.00;;;;;1.36;89.98;100393.47;6272898;20;2500317;-44
2024/01/12 09:58:10;;;;;;;;;70.00;53.50;;;;;1.13;90.53;100388.47;6273989;20;2873225;-43
2024/01/12 10:00:42;;;;;;;;;71.67;54.33;;;;;1.48;88.53;100400.41;6274494;20;2886951;-42
2024/01/12 10:03:11;;;;;;;;;66.00;49.50;;;;;1.44;87.41;100388.97;6298542;20;2500338;-42
2024/01/12 10:05:41;;;;;;;;;62.50;48.00;;;;;1.29;89.41;100389.16;6277828;20;2875321;-43
2024/01/12 10:08:09;;;;;;;;;57.50;45.50;;;;;1.45;88.88;100400.41;6271365;20;2494045;-43
2024/01/12 10:10:40;;;;;;;;;72.50;57.00;;;;;1.79;87.59;100395.56;6277160;20;2875293;-43
2024/01/12 10:13:09;;;;;;;;;70.67;54.33;;;;;1.87;86.86;100395.44;6273704;20;2879618;-43
2024/01/12 10:15:41;;;;;;;;;77.50;57.50;;;;;2.06;86.33;100388.97;6308899;20;2896091;-43
2024/01/12 10:18:09;;;;;;;;;63.00;52.00;;;;;2.08;86.00;100391.56;6272308;20;2500293;-43
2024/01/12 10:20:39;;;;;;;;;67.33;51.00;;;;;1.80;84.92;100394.66;6275019;20;2877466;-43
2024/01/12 10:23:08;;;;;;;;;69.00;52.00;;;;;2.28;84.17;100394.78;6304749;20;2874265;-44
2024/01/12 10:25:37;;;;;;;;;69.00;51.50;;;;;2.49;82.51;100388.25;6273699;20;2873278;-43
2024/01/12 10:28:06;;;;;;;;;66.00;54.00;;;;;2.30;81.62;100398.31;6275851;20;2871159;-43
2024/01/12 10:30:35;;;;;;;;;65.50;48.50;;;;;1.96;81.98;100393.53;6276959;20;2876332;-43
2024/01/12 10:33:05;;;;;;;;;68.00;54.00;;;;;2.28;81.88;100393.94;6269474;20;2858775;-43
2024/01/12 10:35:34;;;;;;;;;56.00;46.00;;;;;2.59;78.94;100389.84;6275002;20;2862804;-43
2024/01/12 10:38:04;;;;;;;;;63.50;49.00;;;;;2.04;79.61;100389.91;6275915;20;2881627;-44
2024/01/12 10:40:33;;;;;;;;;74.00;54.00;;;;;2.36;80.65;100384.06;6269744;20;3639949;-42
2024/01/12 10:43:05;;;;;;;;;57.00;46.00;;;;;2.65;77.03;100378.25;6304063;20;2848282;-43
2024/01/12 10:45:37;;;;;;;;;56.33;41.33;;;;;2.72;76.50;100373.72;6274255;20;2877592;-44
2024/01/12 10:48:11;;;;;;;;;66.00;50.67;;;;;2.64;77.54;100365.91;6304969;20;2883728;-43
2024/01/12 10:50:43;;;;;;;;;60.00;46.00;;;;;2.66;76.82;100366.78;6305533;20;2876321;-43
2024/01/12 10:53:37;;;;;;;;;66.67;49.67;;;;;2.98;75.78;100367.94;6273606;20;3624287;-46
2024/01/12 10:56:07;;;;;;;;;48.00;41.00;;;;;3.50;74.22;100378.34;6305554;20;2862775;-45